ESSP/NRK METAR and TAF weather

Enter ICAO airport designator
Station Type Date Time Source
ESSP METAR 2019/02/23 16:50 UTC NOAA

ESSP 231650Z 28011KT 9999 OVC008 03/02 Q1034


Station Type Date Time Source
ESSP Decoded METAR 2019/02/23 16:50 UTC NOAA

Norrkoping, Sweden (ESSP) 58-35N 016-09E 0M
Feb 23, 2019 - 11:50 AM EST / 2019.02.23 1650 UTC
Wind: from the W (280 degrees) at 13 MPH (11 KT):0
Visibility: greater than 7 mile(s):0
Sky conditions: overcast
Temperature: 37 F (3 C)
Dew Point: 35 F (2 C)
Relative Humidity: 93%
Pressure (altimeter): 30.53 in. Hg (1034 hPa)
ob: ESSP 231650Z 28011KT 9999 OVC008 03/02 Q1034
cycle: 17

Station Type Date Time Source
ESSP TAF 2018/01/01 02:31 UTC NOAA

TAF ESSP 010130Z 0102/0206 16002KT 9999 BKN004 PROB40 0102/0106 4000 BR SCT004


Example: see airport list